Pagina principale
METAR-TAF:

METAR-TAF

Aeroporti :

Base aerea di Sigonella

Sigonella, Italia

latitudine: 37-24N, longitudine: 014-55E, altezza: 22 m

Osservazione

Il bollettino è stato emesso 58 minuti fa, alle 23:55 UTC
Vento 16 kt da ovest/sud-ovest
Temperature 14°C
Umidità 77%
Pressione 1014 hPa
Visibilità 10 km o più
nessuna nube inferiore a 1500 m e nessun cumulonembo

METAR: LICZ 192355Z 25016KT CAVOK 14/10 Q1014 RMK SKC VIS MIN 9999 WIND THR28 27016KT WIND THR 25014KT A2996 BLU

Ora: 02:53 (00:53 UTC)

Previsione

Il bollettino è stato emesso 1 ora e 53 minuti fa, alle 23:00 UTC
Previsione valida dal 20 alle 00 UTC al 20 alle 24 UTC
Vento 21 kt da ovest
Visibilità 10 km o più
nessuna nube inferiore a 1500 m e nessun cumulonembo
Temporaneamente
dal 20 alle 10 UTC al 20 alle 18 UTC
Vento 15 kt da ovest con raffiche fino a 30 kt

TAF: LICZ 192300Z 2000/2024 27021KT CAVOK TEMPO 2010/2018 27015G30KT

Osservazioni e previsioni meteorologiche di più di 4000 aeroporti (messaggi METAR e TAF).

Le stazioni disponibili sono rappresentate dai dischi gialli e rossi sulla carta.

Puntare il mouse per vedere il nome della stazione.

Clicca sopra per visualizzare le osservazioni e previsioni meteorologiche.

Per cambiare la mappa : fare clic sui pulsanti verdi con una croce nera per ingrandire, il pulsante verde con un trattino per diminuire, o sulla freccia verde per le mappe adiacenti.


METAR-TAF: